createdAt,value
2022-09-23T00:07:06.274Z,11.04
2022-09-23T00:17:07.926Z,11.02
2022-09-23T00:27:09.831Z,10.97
2022-09-23T00:37:11.735Z,10.86
2022-09-23T00:47:36.262Z,10.90
2022-09-23T00:57:40.115Z,10.80
2022-09-23T01:07:41.525Z,10.73
2022-09-23T01:18:03.279Z,10.67
2022-09-23T01:28:38.801Z,10.56
2022-09-23T01:39:11.313Z,10.49
2022-09-23T01:49:35.192Z,10.36
2022-09-23T01:59:47.108Z,10.28
2022-09-23T02:10:03.434Z,10.20
2022-09-23T02:20:07.196Z,10.17
2022-09-23T02:30:18.020Z,10.21
2022-09-23T02:40:38.027Z,10.15
2022-09-23T02:50:40.091Z,10.08
2022-09-23T03:01:21.738Z,10.07
2022-09-23T03:11:24.653Z,10.03
2022-09-23T03:21:48.840Z,10.04
2022-09-23T03:31:50.484Z,9.96
2022-09-23T03:41:55.187Z,9.86
2022-09-23T03:51:56.746Z,9.77
2022-09-23T04:01:59.551Z,9.81
2022-09-23T04:12:01.363Z,9.69
2022-09-23T04:22:03.218Z,9.66
2022-09-23T04:32:04.788Z,9.60
2022-09-23T04:42:06.625Z,9.58
2022-09-23T04:52:08.052Z,9.59
2022-09-23T05:02:10.831Z,9.64
2022-09-23T05:12:12.287Z,9.67
2022-09-23T05:22:13.701Z,9.80
2022-09-23T05:32:15.398Z,10.00
2022-09-23T05:42:18.204Z,10.23
2022-09-23T05:52:19.617Z,10.54
2022-09-23T06:02:21.353Z,10.67
2022-09-23T06:12:23.196Z,10.77
2022-09-23T06:22:25.117Z,10.84
2022-09-23T06:32:26.774Z,11.21
2022-09-23T06:42:28.185Z,11.53
2022-09-23T06:52:30.067Z,11.99
2022-09-23T07:02:31.591Z,12.65
2022-09-23T07:12:33.997Z,13.36
2022-09-23T07:22:35.839Z,21.11
2022-09-23T07:32:46.993Z,32.03
2022-09-23T07:42:50.251Z,37.90
2022-09-23T07:52:52.872Z,40.71
2022-09-23T08:02:54.359Z,42.88
2022-09-23T08:12:56.017Z,43.72
2022-09-23T08:22:57.445Z,44.32
2022-09-23T08:32:58.908Z,45.43
2022-09-23T08:43:00.407Z,44.66
2022-09-23T08:53:14.306Z,44.80
2022-09-23T09:03:23.716Z,43.82
2022-09-23T09:13:34.188Z,43.72
2022-09-23T09:23:55.922Z,44.42
2022-09-23T09:34:11.926Z,44.39
2022-09-23T09:44:26.074Z,42.27
2022-09-23T09:54:29.065Z,41.74
2022-09-23T10:04:35.501Z,41.64
2022-09-23T10:14:37.394Z,40.96
2022-09-23T10:24:41.978Z,40.75
2022-09-23T10:34:46.560Z,39.35
2022-09-23T10:45:38.599Z,38.46
2022-09-23T10:55:54.137Z,38.33
2022-09-23T11:06:11.983Z,35.37
2022-09-23T11:16:25.936Z,29.62
2022-09-23T11:26:54.643Z,27.69
2022-09-23T11:37:18.566Z,27.18
2022-09-23T11:47:29.301Z,26.62
2022-09-23T11:57:52.725Z,26.79
2022-09-23T12:08:26.918Z,27.24
2022-09-23T12:18:54.774Z,26.59
2022-09-23T12:29:02.792Z,26.98
2022-09-23T12:39:17.664Z,27.07
2022-09-23T12:49:29.247Z,26.15
2022-09-23T12:59:33.018Z,26.73
2022-09-23T13:09:42.578Z,26.92
2022-09-23T13:19:46.162Z,26.93
2022-09-23T13:30:03.247Z,26.62
2022-09-23T13:40:27.100Z,26.79
2022-09-23T13:50:32.891Z,26.14
2022-09-23T14:00:37.841Z,26.89
2022-09-23T14:10:42.913Z,27.81
2022-09-23T14:20:50.134Z,27.70
2022-09-23T14:30:54.112Z,27.17
2022-09-23T14:41:17.106Z,26.44
2022-09-23T14:51:18.656Z,25.35
2022-09-23T15:01:32.469Z,24.10
2022-09-23T15:11:35.997Z,23.74
2022-09-23T15:21:44.117Z,23.13
2022-09-23T15:31:46.500Z,22.74
2022-09-23T15:41:48.026Z,22.26
2022-09-23T15:51:52.082Z,21.84
2022-09-23T16:01:55.779Z,21.42
2022-09-23T16:11:57.586Z,21.27
2022-09-23T16:21:59.018Z,20.91
2022-09-23T16:32:01.067Z,20.63
2022-09-23T16:42:02.609Z,20.20
2022-09-23T16:52:04.129Z,19.63
2022-09-23T17:02:28.977Z,19.20
2022-09-23T17:12:32.592Z,18.77
2022-09-23T17:22:34.336Z,18.37
2022-09-23T17:32:35.788Z,17.96
2022-09-23T17:42:41.246Z,17.75
2022-09-23T17:52:42.702Z,17.42
2022-09-23T18:02:44.097Z,17.20
2022-09-23T18:12:45.495Z,17.03
2022-09-23T18:22:49.351Z,16.76
2022-09-23T18:32:51.699Z,16.71
2022-09-23T18:42:53.186Z,16.59
2022-09-23T18:52:57.974Z,16.46
2022-09-23T19:03:01.589Z,16.42
2022-09-23T19:13:05.648Z,16.35
2022-09-23T19:23:07.086Z,16.40
2022-09-23T19:33:09.003Z,16.37
2022-09-23T19:43:10.739Z,16.28
2022-09-23T19:53:12.699Z,16.17
2022-09-23T20:03:14.384Z,16.02
2022-09-23T20:13:17.353Z,15.82
2022-09-23T20:23:18.818Z,15.64
2022-09-23T20:33:22.520Z,15.55
2022-09-23T20:43:26.358Z,15.44
2022-09-23T20:53:28.262Z,15.30
2022-09-23T21:03:31.762Z,15.27
2022-09-23T21:13:34.518Z,15.26
2022-09-23T21:23:38.161Z,15.23
2022-09-23T21:33:39.649Z,15.37
2022-09-23T21:43:41.478Z,15.38
2022-09-23T21:53:44.664Z,15.23
2022-09-23T22:03:55.043Z,15.06
2022-09-23T22:13:57.618Z,15.18
2022-09-23T22:24:01.700Z,15.37
2022-09-23T22:34:03.238Z,15.35
2022-09-23T22:44:05.018Z,15.09
2022-09-23T22:54:07.374Z,14.95
2022-09-23T23:04:12.526Z,14.86
2022-09-23T23:14:18.579Z,14.94
2022-09-23T23:24:22.713Z,14.96
2022-09-23T23:34:24.289Z,14.93
2022-09-23T23:44:26.762Z,14.92
2022-09-23T23:54:28.296Z,14.79
